Relevés horaires Koksijde (Belgique)


Relevés horaires à Koksijde - Jeudi 04 Mai 2023
Heure UTC1 Température [°C] Vent [km/h] Hum. [%] Pres.4 [hPa] Visi. [Km] Nébu. [octa] Préc.5 [mm] Cond.
2m. Res. Ros. Dir.2 Vit. Moy. Raf.3
23:00 12.6 12.6 11.7 S 3.7 -- 7.4 94 1015.2(0.4/3h) 13 -- -- --
22:00 14.6 14.6 13.2 SSE 5.6 -- 11.1 91 1015.2(1.2/3h) 10 -- -- NA
21:00 15.3 15.3 12.8 OSO 3.7 -- 13.0 85 1015.1(1.2/3h) 11 -- -- Il y a de la pluie faible et continue à la station au moment de l'observation
20:00 15.3 15.3 10.7 O 3.7 -- 9.3 74 1014.7(1.3/3h) 19 -- -- --
19:00 17.0 17.0 11.3 NNO 1.9 -- 13.0 69 1013.8(0.8/3h) 20 -- -- --
18:00 17.5 17.5 11.0 O 9.3 -- 14.8 66 1013.6(0.6/3h) 19 -- -- --
17:00 21.5 21.5 12.5 SSO 7.4 -- 13.0 57 1013.2(0.0/3h) 20 -- -- --
16:00 22.5 22.5 11.3 S 7.4 -- 11.1 49 1013(-1.0/3h) 20 -- -- --
15:00 22.2 22.2 9.6 SE 5.6 -- 14.8 45 1013(-1.5/3h) 20 -- -- --
14:00 21.8 21.8 8.2 ESE 9.3 -- 14.8 42 1013.2(-1.9/3h) 20 5/8 -- --
13:00 21.3 21.3 8.4 ESE 9.3 -- 14.8 44 1014(-2.4/3h) 20 3/8 -- --
10:00 17.7 17.7 7.2 ESE 9.3 -- 14.8 50 1016.3(-1.7/3h) 20 2/8 -- --
09:00 16.2 15.9 7.1 ESE 11.1 -- 14.8 55 1017(-1.7/3h) 20 2/8 -- --
08:00 14.4 14 6.2 E 9.3 -- 13.0 58 1017.6(-1.2/3h) 20 2/8 -- --
07:00 11.4 11.2 6.0 E 5.6 -- 9.3 69 1018.2(-0.8/3h) 20 4/8 -- --
06:00 9.0 9.0 5.0 E 3.7 -- 9.3 76 1018.7(-0.8/3h) 12 4/8 -- --
05:00 6.3 6.3 3.9 E 3.7 -- 5.6 85 1018.8(-1.0/3h) 12 4/8 -- --
04:00 6.5 5.6 3.7 E 5.6 -- 7.4 82 1019.2(-1.2/3h) 6 -- -- --
03:00 6.9 6 3.7 E 5.6 -- 9.3 80 1019.6(-1.2/3h) 12 -- -- --
02:00 7.4 6.1 3.8 E 7.4 -- 9.3 78 1019.8(-1.6/3h) 14 -- -- --
01:00 7.5 6.7 4.0 E 5.6 -- 7.4 78 1020.3(-1.8/3h) 15 -- -- --
00:00 8.4 8.4 4.4 NE 3.7 -- 18.5 76 1020.8(-1.5/3h) 18 -- -- --

1 Coordinated Universal Time. Actuellement il est 13:00 locale et 11:00 UTC.

2 Le vent souffle depuis la direction indiquée vers la direction oposée.

3 Les rafales max. sont disponible 40 min après l'heure du relevé.

4 Pour les stations d'altitude (plus de 600m) le géopotentiel du niveau le plus proche de la pression obligatoire est indiqué.

5 Les stations disposant d'un diffuseur peuvent indiquer "trace". Cela signifie que des précipitations ont touchés le sol mais que la quantité est inférieure à 0.1 mm.

Récapitulatif de la journée
Température [°C] Vent [km/h] Ensoleillement4 [h] Precipitations totale5 [mm] Pression [Hpa]
Min1 Max.2 Moy.3 Max. Min Max.
6.0 22.8 0 18.5 0 h 0 min 0 1013.0 1020.8

1 Température minimale relevée entre 18:00 UTC la veille et 18:00 UTC le jour donné.

2 Température maximale relevée entre 06:00 UTC le jour donné et 06:00 UTC le lendemain.

3 Vent moyen de la journée basé sur les relevés horaires.

4 Ensoleillement en heures relevé entre 06:00 UTC la veille et 06:00 UTC le jour donné.

5 Précipitations totales tombées entre 06:00 UTC la jour donné et 06:00 UTC le lendemain.

Graphiques horaires